Time;durP1;ratioP1;P1;durP2;ratioP2;P2;SDS_P1;SDS_P2;PMS_P1;PMS_P2;Temp;Humidity;BMP_temperature;BMP_pressure;BME280_temperature;BME280_humidity;BME280_pressure;Samples;Min_cycle;Max_cycle;Signal;HPM_P1;HPM_P2
2022/11/25 00:01:30;;;;;;;15.30;3.72;;;8.10;99.90;;;;;;4974091;28;20034;-63
2022/11/25 00:03:57;;;;;;;17.02;3.72;;;8.20;99.90;;;;;;4958821;28;20042;-63
2022/11/25 00:06:28;;;;;;;19.73;3.45;;;8.10;99.90;;;;;;4953031;28;20031;-63
2022/11/25 00:08:57;;;;;;;15.98;3.53;;;8.20;99.90;;;;;;4955341;28;20141;-63
2022/11/25 00:11:23;;;;;;;16.90;3.38;;;8.30;99.90;;;;;;4963328;28;20181;-63
2022/11/25 00:13:49;;;;;;;16.95;4.10;;;8.20;99.90;;;;;;4957650;28;20577;-63
2022/11/25 00:16:18;;;;;;;16.13;4.13;;;8.20;99.90;;;;;;4961551;28;20060;-63
2022/11/25 00:18:54;;;;;;;14.70;3.70;;;8.20;99.90;;;;;;4959710;28;20028;-63
2022/11/25 00:21:23;;;;;;;15.57;3.80;;;8.20;99.90;;;;;;4960165;28;20039;-63
2022/11/25 00:23:54;;;;;;;19.25;3.50;;;8.20;99.90;;;;;;4955053;28;20391;-63
2022/11/25 00:26:20;;;;;;;14.60;3.45;;;8.20;99.90;;;;;;4951593;28;20435;-62
2022/11/25 00:28:47;;;;;;;19.70;3.55;;;8.20;99.90;;;;;;4959330;28;20736;-62
2022/11/25 00:31:18;;;;;;;13.45;3.13;;;8.10;99.90;;;;;;4961358;28;20045;-63
2022/11/25 00:33:44;;;;;;;17.90;3.72;;;8.20;99.90;;;;;;4969591;28;20038;-63
2022/11/25 00:36:21;;;;;;;15.68;3.33;;;8.20;99.90;;;;;;4957227;28;20043;-63
2022/11/25 00:38:51;;;;;;;15.27;3.15;;;8.20;99.90;;;;;;4970201;28;20042;-63
2022/11/25 00:46:45;;;;;;;16.40;4.10;;;8.30;99.90;;;;;;4956466;28;20471;-63
2022/11/25 00:49:10;;;;;;;18.08;3.63;;;8.30;99.90;;;;;;4958891;28;20031;-63
2022/11/25 00:51:36;;;;;;;13.30;3.30;;;8.30;99.90;;;;;;4960271;28;20379;-63
2022/11/25 00:54:02;;;;;;;15.80;4.03;;;8.40;99.90;;;;;;4963187;28;20042;-63
2022/11/25 00:56:29;;;;;;;14.52;3.30;;;8.40;99.90;;;;;;4974681;28;20260;-63
2022/11/25 00:58:54;;;;;;;19.55;3.83;;;8.40;99.90;;;;;;4959636;28;20399;-63
2022/11/25 01:01:20;;;;;;;12.65;3.10;;;8.40;99.90;;;;;;4963344;28;20035;-63
2022/11/25 01:03:49;;;;;;;14.93;3.45;;;8.40;99.90;;;;;;4963725;28;20030;-63
2022/11/25 01:06:14;;;;;;;18.65;3.25;;;8.40;99.90;;;;;;4962547;28;20344;-63
2022/11/25 01:08:40;;;;;;;15.20;3.42;;;8.40;99.90;;;;;;4962259;28;20114;-63
2022/11/25 01:11:09;;;;;;;16.45;3.58;;;8.50;99.90;;;;;;4956127;28;20034;-63
2022/11/25 01:13:34;;;;;;;15.90;3.67;;;8.50;99.90;;;;;;4954707;28;20023;-63
2022/11/25 01:16:01;;;;;;;18.10;3.33;;;8.60;99.90;;;;;;4967023;28;20049;-63
2022/11/25 01:18:28;;;;;;;16.95;3.33;;;8.60;99.90;;;;;;4968141;28;20812;-63
2022/11/25 01:20:53;;;;;;;15.30;3.20;;;8.60;99.90;;;;;;4968012;28;20074;-63
2022/11/25 01:23:19;;;;;;;16.52;3.47;;;8.70;99.90;;;;;;4964472;28;20375;-63
2022/11/25 01:25:44;;;;;;;21.38;3.75;;;8.70;99.90;;;;;;4959012;28;20172;-63
2022/11/25 01:28:12;;;;;;;15.20;3.63;;;8.70;99.90;;;;;;4968817;28;20038;-64
2022/11/25 01:30:38;;;;;;;15.15;3.30;;;8.70;99.90;;;;;;4957935;28;20027;-63
2022/11/25 01:33:04;;;;;;;12.10;3.53;;;8.70;99.90;;;;;;4950192;28;20043;-63
2022/11/25 01:35:29;;;;;;;15.63;3.22;;;8.70;99.90;;;;;;4964381;28;20113;-63
2022/11/25 01:37:55;;;;;;;14.85;3.03;;;8.70;99.90;;;;;;4962979;28;20398;-63
2022/11/25 01:40:20;;;;;;;16.40;3.83;;;8.80;99.90;;;;;;4964729;28;21090;-63
2022/11/25 01:42:47;;;;;;;14.10;3.63;;;8.80;99.90;;;;;;4954813;28;20333;-63
2022/11/25 01:45:21;;;;;;;15.82;3.10;;;8.80;99.90;;;;;;4961165;28;20633;-63
2022/11/25 01:47:52;;;;;;;17.48;3.65;;;8.80;99.90;;;;;;4971091;28;20512;-63
2022/11/25 01:50:21;;;;;;;13.88;3.30;;;8.80;99.90;;;;;;4957525;28;20047;-63
2022/11/25 01:52:51;;;;;;;17.65;3.30;;;8.90;99.90;;;;;;4959122;28;20043;-63
2022/11/25 01:55:22;;;;;;;15.15;3.40;;;8.80;99.90;;;;;;4962279;28;20031;-63
2022/11/25 01:57:55;;;;;;;17.08;4.60;;;8.70;99.90;;;;;;4963564;28;20394;-63
2022/11/25 02:00:21;;;;;;;13.40;3.03;;;8.70;99.90;;;;;;4953708;28;20027;-63
2022/11/25 02:02:49;;;;;;;11.60;3.13;;;8.80;99.90;;;;;;4970577;28;20226;-62
2022/11/25 02:05:25;;;;;;;13.05;3.38;;;8.80;99.90;;;;;;4969949;28;20113;-64
2022/11/25 02:07:52;;;;;;;13.60;3.60;;;8.80;99.90;;;;;;4961773;28;20030;-62
2022/11/25 02:10:30;;;;;;;13.50;3.13;;;8.80;99.90;;;;;;4961490;28;20031;-62
2022/11/25 02:12:57;;;;;;;19.00;3.38;;;8.90;99.90;;;;;;4961081;28;20066;-62
2022/11/25 02:15:23;;;;;;;13.93;2.80;;;8.90;99.90;;;;;;4958586;28;20046;-63
2022/11/25 02:17:49;;;;;;;13.88;3.28;;;8.90;99.90;;;;;;4966184;28;20054;-63
2022/11/25 02:20:20;;;;;;;16.85;3.53;;;8.90;99.90;;;;;;4963925;28;20035;-63
2022/11/25 02:23:18;;;;;;;14.07;3.65;;;9.00;99.90;;;;;;4953312;28;20031;-62
2022/11/25 02:25:45;;;;;;;14.40;3.20;;;8.90;99.90;;;;;;4953882;28;20054;-62
2022/11/25 02:28:30;;;;;;;14.85;3.42;;;8.90;99.90;;;;;;4955184;28;20035;-63
2022/11/25 02:30:57;;;;;;;14.63;3.70;;;9.00;99.90;;;;;;4957169;28;20054;-62
2022/11/25 02:33:24;;;;;;;12.60;3.58;;;9.00;99.90;;;;;;4964843;28;20035;-63
2022/11/25 02:35:57;;;;;;;10.27;3.47;;;9.10;99.90;;;;;;4972724;28;20495;-62
2022/11/25 02:38:43;;;;;;;;;;;9.00;99.90;;;;;;4957158;28;20035;-63
2022/11/25 02:41:15;;;;;;;;;;;9.00;99.90;;;;;;4954428;28;20369;-64
2022/11/25 02:43:40;;;;;;;;;;;9.00;99.90;;;;;;4962770;28;20424;-63
2022/11/25 02:46:08;;;;;;;;;;;9.10;99.90;;;;;;4957891;28;19961;-63
2022/11/25 02:48:35;;;;;;;;;;;9.10;99.90;;;;;;4961053;28;20517;-63
2022/11/25 02:51:00;;;;;;;;;;;9.10;99.90;;;;;;4963454;28;19984;-63
2022/11/25 02:53:26;;;;;;;;;;;9.10;99.90;;;;;;4964561;28;20198;-63
2022/11/25 02:55:51;;;;;;;;;;;9.10;99.90;;;;;;4968219;28;19914;-63
2022/11/25 02:58:17;;;;;;;;;;;9.10;99.90;;;;;;4959130;28;19917;-63
2022/11/25 03:00:43;;;;;;;;;;;9.10;99.90;;;;;;4961857;28;19937;-63
2022/11/25 03:03:09;;;;;;;;;;;9.10;99.90;;;;;;4956692;28;19917;-62
2022/11/25 03:05:34;;;;;;;;;;;9.10;99.90;;;;;;4957166;28;19914;-62
2022/11/25 03:08:00;;;;;;;;;;;9.10;99.90;;;;;;4959615;28;19964;-63
2022/11/25 03:10:25;;;;;;;;;;;9.20;99.90;;;;;;4960198;28;19925;-63
2022/11/25 03:12:51;;;;;;;;;;;9.00;99.90;;;;;;4950553;28;19910;-63
2022/11/25 03:15:16;;;;;;;;;;;9.10;99.90;;;;;;4959846;28;19922;-63
2022/11/25 03:17:42;;;;;;;;;;;9.20;99.90;;;;;;4962234;28;19950;-63
2022/11/25 03:20:08;;;;;;;;;;;9.20;99.90;;;;;;4955936;28;19920;-62
2022/11/25 03:22:34;;;;;;;;;;;9.10;99.90;;;;;;4964770;28;19914;-63
2022/11/25 03:24:59;;;;;;;;;;;9.20;99.90;;;;;;4969320;28;19925;-63
2022/11/25 03:27:25;;;;;;;;;;;9.20;99.90;;;;;;4966569;28;19925;-63
2022/11/25 03:29:50;;;;;;;;;;;9.20;99.90;;;;;;4962307;28;19936;-63
2022/11/25 03:32:16;;;;;;;;;;;9.20;99.90;;;;;;4958283;28;19958;-63
2022/11/25 03:34:41;;;;;;;;;;;9.20;99.90;;;;;;4964660;28;19921;-64
2022/11/25 03:37:07;;;;;;;;;;;9.20;99.90;;;;;;4960126;28;19925;-64
2022/11/25 03:39:32;;;;;;;;;;;9.10;99.90;;;;;;4960117;28;19910;-63
2022/11/25 03:41:58;;;;;;;;;;;9.20;99.90;;;;;;4960815;28;19914;-62
2022/11/25 03:44:24;;;;;;;;;;;9.20;99.90;;;;;;4958587;28;19933;-63
2022/11/25 03:46:49;;;;;;;;;;;9.10;99.90;;;;;;4954318;28;20013;-63
2022/11/25 03:49:15;;;;;;;;;;;9.10;99.90;;;;;;4963558;28;19914;-63
2022/11/25 03:51:40;;;;;;;;;;;9.20;99.90;;;;;;4957451;28;19914;-63
2022/11/25 03:54:06;;;;;;;;;;;9.10;99.90;;;;;;4964522;28;19914;-63
2022/11/25 03:56:32;;;;;;;;;;;9.10;99.90;;;;;;4962040;28;19915;-63
2022/11/25 03:58:57;;;;;;;;;;;9.10;99.90;;;;;;4955639;28;20350;-63
2022/11/25 04:01:23;;;;;;;;;;;9.20;99.90;;;;;;4962993;28;19937;-63
2022/11/25 04:03:48;;;;;;;;;;;9.10;99.90;;;;;;4961930;28;20025;-63
2022/11/25 04:06:14;;;;;;;;;;;9.20;99.90;;;;;;4960292;28;19914;-63
2022/11/25 04:08:41;;;;;;;;;;;9.30;99.90;;;;;;4955098;28;19910;-63
2022/11/25 04:11:06;;;;;;;;;;;9.10;99.90;;;;;;4964188;28;19917;-63
2022/11/25 04:13:33;;;;;;;;;;;9.00;99.90;;;;;;4957399;28;19910;-63
2022/11/25 04:15:58;;;;;;;;;;;9.00;99.90;;;;;;4961464;28;19920;-63
2022/11/25 04:18:24;;;;;;;;;;;8.90;99.90;;;;;;4971359;28;19918;-63
2022/11/25 04:20:49;;;;;;;;;;;9.00;99.90;;;;;;4962899;28;19980;-62
2022/11/25 04:23:15;;;;;;;;;;;9.00;99.90;;;;;;4964080;28;19937;-63
2022/11/25 04:25:40;;;;;;;;;;;9.10;99.90;;;;;;4966714;28;19910;-62
2022/11/25 04:28:05;;;;;;;;;;;9.10;99.90;;;;;;4958828;28;19922;-63
2022/11/25 04:30:31;;;;;;;;;;;9.00;99.90;;;;;;4960908;28;20233;-63
2022/11/25 04:32:57;;;;;;;;;;;8.90;99.90;;;;;;4961383;28;19918;-62
2022/11/25 04:35:22;;;;;;;;;;;8.90;99.90;;;;;;4964131;28;20318;-61
2022/11/25 04:37:48;;;;;;;;;;;8.90;99.90;;;;;;4960995;28;19986;-62
2022/11/25 04:40:14;;;;;;;;;;;8.70;99.90;;;;;;4956691;28;19922;-61
2022/11/25 04:42:39;;;;;;;;;;;8.80;99.90;;;;;;4952392;28;19989;-61
2022/11/25 04:45:05;;;;;;;;;;;8.90;99.90;;;;;;4959384;28;20001;-62
2022/11/25 04:47:31;;;;;;;;;;;9.00;99.90;;;;;;4958965;28;20285;-62
2022/11/25 04:49:56;;;;;;;;;;;9.10;99.90;;;;;;4952538;28;19961;-61
2022/11/25 04:52:22;;;;;;;;;;;9.00;99.90;;;;;;4961034;28;19992;-62
2022/11/25 04:54:47;;;;;;;;;;;9.10;99.90;;;;;;4961700;28;19918;-62
2022/11/25 04:57:13;;;;;;;;;;;9.00;99.90;;;;;;4974760;28;20406;-62
2022/11/25 04:59:40;;;;;;;;;;;9.10;99.90;;;;;;4953236;28;20372;-62
2022/11/25 05:02:18;;;;;;;;;;;9.10;99.90;;;;;;4961675;28;20546;-61
2022/11/25 05:04:45;;;;;;;;;;;9.10;99.90;;;;;;4977021;28;19933;-61
2022/11/25 05:07:11;;;;;;;;;;;9.10;99.90;;;;;;4964800;28;19918;-61
2022/11/25 05:09:36;;;;;;;;;;;9.00;99.90;;;;;;4958056;28;19949;-62
2022/11/25 05:12:02;;;;;;;;;;;9.10;99.90;;;;;;4963178;28;19953;-61
2022/11/25 05:14:28;;;;;;;;;;;9.10;99.90;;;;;;4962657;28;19924;-61
2022/11/25 05:16:53;;;;;;;;;;;9.20;99.90;;;;;;4960025;28;19918;-62
2022/11/25 05:19:19;;;;;;;;;;;9.30;99.90;;;;;;4960041;28;20381;-61
2022/11/25 05:21:44;;;;;;;;;;;9.30;99.90;;;;;;4955419;28;20053;-62
2022/11/25 05:24:10;;;;;;;;;;;9.10;99.90;;;;;;4965232;28;19910;-62
2022/11/25 05:26:35;;;;;;;;;;;9.20;99.90;;;;;;4967216;28;19914;-62
2022/11/25 05:29:01;;;;;;;;;;;9.10;99.90;;;;;;4964962;28;20349;-61
2022/11/25 05:31:26;;;;;;;;;;;9.00;99.90;;;;;;4964776;28;19922;-61
2022/11/25 05:33:52;;;;;;;;;;;8.90;99.90;;;;;;4962057;28;19914;-62
2022/11/25 05:36:17;;;;;;;;;;;8.80;99.90;;;;;;4961940;28;20402;-62
2022/11/25 05:38:43;;;;;;;;;;;8.80;99.90;;;;;;4963740;28;19910;-62
2022/11/25 05:41:09;;;;;;;;;;;8.80;99.90;;;;;;4958108;28;19930;-62
2022/11/25 05:43:35;;;;;;;;;;;8.80;99.90;;;;;;4964557;28;19960;-62
2022/11/25 05:46:05;;;;;;;;;;;8.90;99.90;;;;;;4961784;28;19915;-62
2022/11/25 05:48:30;;;;;;;;;;;9.10;99.90;;;;;;4956449;28;19921;-62
2022/11/25 05:50:58;;;;;;;;;;;9.00;99.90;;;;;;4964361;28;19996;-62
2022/11/25 05:53:24;;;;;;;;;;;9.10;99.90;;;;;;4960923;28;20445;-62
2022/11/25 05:55:54;;;;;;;;;;;9.20;99.90;;;;;;4965265;28;19960;-62
2022/11/25 05:58:19;;;;;;;;;;;9.10;99.90;;;;;;4973925;28;19910;-62
2022/11/25 06:00:45;;;;;;;;;;;9.00;99.90;;;;;;4968437;28;19969;-62
2022/11/25 06:03:10;;;;;;;;;;;9.00;99.90;;;;;;4959887;28;19914;-62
2022/11/25 06:05:36;;;;;;;;;;;9.00;99.90;;;;;;4965149;28;19928;-62
2022/11/25 06:08:01;;;;;;;;;;;9.10;99.90;;;;;;4963602;28;20331;-63
2022/11/25 06:10:27;;;;;;;;;;;9.00;99.90;;;;;;4963963;28;19914;-62
2022/11/25 06:12:52;;;;;;;;;;;8.90;99.90;;;;;;4961049;28;20282;-62
2022/11/25 06:15:18;;;;;;;;;;;8.80;99.90;;;;;;4965118;28;20253;-62
2022/11/25 06:17:43;;;;;;;;;;;8.90;99.90;;;;;;4963454;28;19917;-62
2022/11/25 06:20:09;;;;;;;;;;;8.80;99.90;;;;;;4960451;28;20025;-63
2022/11/25 06:22:35;;;;;;;;;;;8.80;99.90;;;;;;4961282;28;20009;-62
2022/11/25 06:25:00;;;;;;;;;;;9.00;99.90;;;;;;4963850;28;20297;-62
2022/11/25 06:27:26;;;;;;;;;;;8.80;99.90;;;;;;4959835;28;20000;-62
2022/11/25 06:29:51;;;;;;;;;;;8.80;99.90;;;;;;4964171;28;19922;-62
2022/11/25 06:32:17;;;;;;;;;;;8.80;99.90;;;;;;4963960;28;20001;-63
2022/11/25 06:34:43;;;;;;;;;;;8.70;99.90;;;;;;4972590;28;19926;-62
2022/11/25 06:37:08;;;;;;;;;;;8.80;99.90;;;;;;4958444;28;20024;-62
2022/11/25 06:39:34;;;;;;;;;;;8.80;99.90;;;;;;4961269;28;21205;-62
2022/11/25 06:41:59;;;;;;;;;;;8.80;99.90;;;;;;4959174;28;19989;-62
2022/11/25 06:44:24;;;;;;;;;;;8.90;99.90;;;;;;4972740;28;19917;-62
2022/11/25 06:46:50;;;;;;;;;;;8.80;99.90;;;;;;4962864;28;19921;-63
2022/11/25 06:49:15;;;;;;;;;;;8.80;99.90;;;;;;4954719;28;19914;-62
2022/11/25 06:51:41;;;;;;;;;;;8.70;99.90;;;;;;4962643;28;19914;-62
2022/11/25 06:54:07;;;;;;;;;;;8.80;99.90;;;;;;4961557;28;19921;-63
2022/11/25 06:56:32;;;;;;;;;;;8.80;99.90;;;;;;4961754;28;19918;-62
2022/11/25 06:58:58;;;;;;;;;;;8.70;99.90;;;;;;4964534;28;20367;-62
2022/11/25 07:01:27;;;;;;;;;;;8.70;99.90;;;;;;4956438;28;19921;-63
2022/11/25 07:03:54;;;;;;;;;;;8.50;99.90;;;;;;4962452;28;20377;-63
2022/11/25 07:06:19;;;;;;;;;;;8.90;99.90;;;;;;4965329;28;20396;-62
2022/11/25 07:08:45;;;;;;;;;;;8.80;99.90;;;;;;4967317;28;19914;-62
2022/11/25 07:11:14;;;;;;;;;;;8.90;99.90;;;;;;4955362;28;20358;-63
2022/11/25 07:13:40;;;;;;;;;;;8.90;99.90;;;;;;4959751;28;19914;-62
2022/11/25 07:16:06;;;;;;;;;;;8.90;99.90;;;;;;4960556;28;19972;-62
2022/11/25 07:18:33;;;;;;;;;;;8.90;99.90;;;;;;4958748;28;20406;-62
2022/11/25 07:21:02;;;;;;;;;;;8.90;99.90;;;;;;4967689;28;20366;-62
2022/11/25 07:23:28;;;;;;;;;;;8.70;99.90;;;;;;4963213;28;20900;-62
2022/11/25 07:25:53;;;;;;;;;;;8.60;99.90;;;;;;4971511;28;19917;-63
2022/11/25 07:28:18;;;;;;;;;;;8.50;99.90;;;;;;4961975;28;20277;-62
2022/11/25 07:30:44;;;;;;;;;;;8.50;99.90;;;;;;4963867;28;20535;-62
2022/11/25 07:33:09;;;;;;;;;;;8.50;99.90;;;;;;4961279;28;19925;-62
2022/11/25 07:35:35;;;;;;;;;;;8.50;99.90;;;;;;4960103;28;20020;-62
2022/11/25 07:38:00;;;;;;;;;;;8.50;99.90;;;;;;4962418;28;19922;-62
2022/11/25 07:40:26;;;;;;;;;;;8.40;99.90;;;;;;4961609;28;19921;-62
2022/11/25 07:42:51;;;;;;;;;;;8.30;99.90;;;;;;4953615;28;19918;-62
2022/11/25 07:45:17;;;;;;;;;;;8.40;99.90;;;;;;4959247;28;19972;-61
2022/11/25 07:47:42;;;;;;;;;;;8.50;99.90;;;;;;4958279;28;19914;-62
2022/11/25 07:50:08;;;;;;;;;;;8.60;99.90;;;;;;4959487;28;20377;-62
2022/11/25 07:52:36;;;;;;;;;;;8.50;99.90;;;;;;4958389;28;19917;-61
2022/11/25 07:55:01;;;;;;;;;;;8.50;99.90;;;;;;4961001;28;20293;-62
2022/11/25 07:57:27;;;;;;;;;;;8.50;99.90;;;;;;4957104;28;19933;-62
2022/11/25 07:59:53;;;;;;;;;;;8.60;99.90;;;;;;4956922;28;19994;-62
2022/11/25 08:02:18;;;;;;;;;;;8.80;99.90;;;;;;4956720;28;19918;-62
2022/11/25 08:04:44;;;;;;;;;;;8.60;99.90;;;;;;4965481;28;20392;-62
2022/11/25 08:07:09;;;;;;;;;;;8.40;99.90;;;;;;4982056;28;19922;-62
2022/11/25 08:09:34;;;;;;;;;;;8.40;99.90;;;;;;4960719;28;20005;-62
2022/11/25 08:12:00;;;;;;;;;;;8.30;99.90;;;;;;4960688;28;19914;-62
2022/11/25 08:14:26;;;;;;;;;;;8.30;99.90;;;;;;4960774;28;20462;-61
2022/11/25 08:16:51;;;;;;;;;;;8.30;99.90;;;;;;4966646;28;19953;-61
2022/11/25 08:19:17;;;;;;;;;;;8.30;99.90;;;;;;4959205;28;19922;-62
2022/11/25 08:21:42;;;;;;;;;;;8.40;99.90;;;;;;4959974;28;19921;-61
2022/11/25 08:24:13;;;;;;;;;;;8.50;99.90;;;;;;4961774;28;19914;-61
2022/11/25 08:26:39;;;;;;;;;;;8.50;99.90;;;;;;4966650;28;19965;-62
2022/11/25 08:29:05;;;;;;;;;;;8.50;99.90;;;;;;4960783;28;19949;-62
2022/11/25 08:31:32;;;;;;;;;;;8.70;99.90;;;;;;4963648;28;20466;-60
2022/11/25 08:33:59;;;;;;;;;;;8.60;99.90;;;;;;4952333;28;19936;-61
2022/11/25 08:36:25;;;;;;;;;;;8.60;99.90;;;;;;4955667;28;19938;-61
2022/11/25 08:38:55;;;;;;;;;;;8.60;99.90;;;;;;4963943;28;20315;-61
2022/11/25 08:41:32;;;;;;;;;;;8.60;99.90;;;;;;4958183;28;19925;-62
2022/11/25 08:43:58;;;;;;;;;;;8.70;99.90;;;;;;4964618;28;19914;-63
2022/11/25 08:46:26;;;;;;;;;;;8.80;99.90;;;;;;4959664;28;19921;-62
2022/11/25 08:48:51;;;;;;;;;;;8.70;99.90;;;;;;4968779;28;19917;-62
2022/11/25 08:51:18;;;;;;;;;;;8.60;99.90;;;;;;4962821;28;19914;-62
2022/11/25 08:53:44;;;;;;;;;;;8.60;99.90;;;;;;4966424;28;20000;-62
2022/11/25 08:56:10;;;;;;;;;;;8.70;99.90;;;;;;4958972;28;20564;-62
2022/11/25 08:58:36;;;;;;;;;;;8.70;99.90;;;;;;4966802;28;19949;-62
2022/11/25 09:01:02;;;;;;;;;;;8.80;99.90;;;;;;4962761;28;20469;-62
2022/11/25 09:03:31;;;;;;;;;;;8.90;99.90;;;;;;4963283;28;19938;-62
2022/11/25 09:05:56;;;;;;;;;;;9.00;99.90;;;;;;4959364;28;20285;-62
2022/11/25 09:08:22;;;;;;;;;;;9.10;99.90;;;;;;4966666;28;19921;-61
2022/11/25 09:10:47;;;;;;;;;;;9.10;99.90;;;;;;4965338;28;19914;-62
2022/11/25 09:13:13;;;;;;;;;;;9.20;99.90;;;;;;4963684;28;19956;-62
2022/11/25 09:15:38;;;;;;;;;;;9.20;99.90;;;;;;4964481;28;19926;-62
2022/11/25 09:18:05;;;;;;;;;;;9.20;99.90;;;;;;4961456;28;19922;-62
2022/11/25 09:20:31;;;;;;;;;;;9.20;99.90;;;;;;4965173;28;20001;-62
2022/11/25 09:23:00;;;;;;;;;;;9.40;99.90;;;;;;4965444;28;19918;-62
2022/11/25 09:25:26;;;;;;;;;;;9.40;99.90;;;;;;4964505;28;19926;-62
2022/11/25 09:27:52;;;;;;;;;;;9.50;99.90;;;;;;4962414;28;19932;-62
2022/11/25 09:30:17;;;;;;;;;;;;;;;;;;4958991;28;19921;-62
2022/11/25 09:32:43;;;;;;;;;;;9.60;99.90;;;;;;4964083;28;19993;-62
2022/11/25 09:35:09;;;;;;;;;;;9.70;99.90;;;;;;4966328;28;19917;-62
2022/11/25 09:37:34;;;;;;;;;;;9.80;99.90;;;;;;4963728;28;19921;-62
2022/11/25 09:40:00;;;;;;;;;;;9.70;99.90;;;;;;4962765;28;20527;-62
2022/11/25 09:48:12;;;;;;;;;;;9.80;99.90;;;;;;4966232;28;19967;-61
2022/11/25 09:50:40;;;;;;;;;;;9.80;99.90;;;;;;4968072;28;19918;-61
2022/11/25 09:53:16;;;;;;;;;;;9.80;99.90;;;;;;4967747;28;20000;-61
2022/11/25 09:55:44;;;;;;;;;;;9.90;99.90;;;;;;4965144;28;19968;-61
2022/11/25 09:58:09;;;;;;;;;;;9.90;99.90;;;;;;4961985;28;19945;-62
2022/11/25 10:00:46;;;;;;;;;;;9.90;99.90;;;;;;4967213;28;19922;-61
2022/11/25 10:03:29;;;;;;;;;;;10.00;99.90;;;;;;4963929;28;19917;-61
2022/11/25 10:06:02;;;;;;;;;;;10.10;99.90;;;;;;4966566;28;19921;-61
2022/11/25 10:08:34;;;;;;;;;;;10.10;99.90;;;;;;4967083;28;20431;-62
2022/11/25 10:11:18;;;;;;;;;;;10.10;99.90;;;;;;4968263;28;19910;-61
2022/11/25 10:13:47;;;;;;;;;;;10.10;99.90;;;;;;4967460;28;19914;-61
2022/11/25 10:16:21;;;;;;;;;;;10.10;99.90;;;;;;4966726;28;20453;-61
2022/11/25 10:18:52;;;;;;;;;;;10.20;99.90;;;;;;4965660;28;19913;-61
2022/11/25 10:21:18;;;;;;;;;;;10.30;99.90;;;;;;4981621;28;19941;-61
2022/11/25 10:23:43;;;;;;;;;;;10.20;99.90;;;;;;4971485;28;19914;-61
2022/11/25 10:26:16;;;;;;;;;;;10.30;99.90;;;;;;4980155;28;19910;-61
2022/11/25 10:28:47;;;;;;;;;;;10.40;99.90;;;;;;4964577;28;19910;-62
2022/11/25 10:31:22;;;;;;;;;;;10.40;99.90;;;;;;4960642;28;19914;-62
2022/11/25 10:33:50;;;;;;;;;;;10.40;99.90;;;;;;4966440;28;20018;-62
2022/11/25 10:36:23;;;;;;;;;;;10.40;99.90;;;;;;4964297;28;19926;-62
2022/11/25 10:38:54;;;;;;;;;;;10.40;99.90;;;;;;4964150;28;19941;-62
2022/11/25 10:41:22;;;;;;;;;;;10.40;99.90;;;;;;4983289;28;19917;-62
2022/11/25 10:43:48;;;;;;;;;;;10.50;99.90;;;;;;4968321;28;19933;-62
2022/11/25 10:46:27;;;;;;;;;;;10.50;99.90;;;;;;4964775;28;19918;-62
2022/11/25 10:49:04;;;;;;;;;;;10.50;99.90;;;;;;4962272;28;19910;-62
2022/11/25 10:51:33;;;;;;;;;;;10.80;99.90;;;;;;4964425;28;19914;-61
2022/11/25 10:54:12;;;;;;;;;;;10.60;99.90;;;;;;4965888;28;19914;-62
2022/11/25 10:56:42;;;;;;;;;;;10.60;99.90;;;;;;4962645;28;20021;-62
2022/11/25 10:59:34;;;;;;;;;;;10.60;99.90;;;;;;4960809;28;19953;-62
2022/11/25 11:02:14;;;;;;;;;;;10.60;99.90;;;;;;4959252;28;20526;-62
2022/11/25 11:04:55;;;;;;;;;;;10.60;99.90;;;;;;4959969;28;19956;-62
2022/11/25 11:07:21;;;;;;;;;;;10.70;99.90;;;;;;4965311;28;20445;-62
2022/11/25 11:09:48;;;;;;;;;;;10.70;99.90;;;;;;4966322;28;19917;-63
2022/11/25 11:12:19;;;;;;;;;;;10.80;99.90;;;;;;4961046;28;19914;-62
2022/11/25 11:14:45;;;;;;;;;;;10.80;99.90;;;;;;4965124;28;20603;-63
2022/11/25 11:17:25;;;;;;;;;;;10.70;99.90;;;;;;4958261;28;20009;-61
2022/11/25 11:20:01;;;;;;;;;;;10.80;99.90;;;;;;4965110;28;19962;-61
2022/11/25 11:22:27;;;;;;;;;;;10.80;99.90;;;;;;4960958;28;19918;-62
2022/11/25 11:25:05;;;;;;;;;;;10.80;99.90;;;;;;4963388;28;19921;-62
2022/11/25 11:27:34;;;;;;;;;;;10.80;99.90;;;;;;4960342;28;19929;-62
2022/11/25 11:30:07;;;;;;;;;;;10.80;99.90;;;;;;4963652;28;20357;-62
2022/11/25 11:32:33;;;;;;;;;;;10.80;99.90;;;;;;4954558;28;20541;-62
2022/11/25 11:35:04;;;;;;;;;;;10.80;99.90;;;;;;4964923;28;19979;-63
2022/11/25 11:37:42;;;;;;;;;;;10.80;99.90;;;;;;4961522;28;19934;-63
2022/11/25 11:40:20;;;;;;;;;;;10.80;99.90;;;;;;4957670;28;19922;-61
2022/11/25 11:42:45;;;;;;;;;;;10.80;99.90;;;;;;4955610;28;20344;-62
2022/11/25 11:45:34;;;;;;;;;;;10.90;99.90;;;;;;4956563;28;19997;-62
2022/11/25 11:48:06;;;;;;;;;;;10.90;99.90;;;;;;4961957;28;20531;-62
2022/11/25 11:50:34;;;;;;;;;;;11.00;99.90;;;;;;4956405;28;20354;-61
2022/11/25 11:53:18;;;;;;;;;;;10.90;99.90;;;;;;4959604;28;19914;-62
2022/11/25 11:55:50;;;;;;;;;;;10.90;99.90;;;;;;4961798;28;20325;-62
2022/11/25 11:58:16;;;;;;;;;;;11.00;99.90;;;;;;4953846;28;19922;-62
2022/11/25 12:00:47;;;;;;;;;;;11.00;99.90;;;;;;4965077;28;20325;-62
2022/11/25 12:03:18;;;;;;;;;;;11.00;99.90;;;;;;4954184;28;19923;-62
2022/11/25 12:05:43;;;;;;;;;;;11.00;99.90;;;;;;4964377;28;19921;-62
2022/11/25 12:08:21;;;;;;;;;;;11.00;99.90;;;;;;4960213;28;19922;-62
2022/11/25 12:10:55;;;;;;;;;;;11.00;99.90;;;;;;4960416;28;19941;-62
2022/11/25 12:13:31;;;;;;;;;;;11.10;99.90;;;;;;4956242;28;20289;-62
2022/11/25 12:16:20;;;;;;;;;;;11.10;99.90;;;;;;4959202;28;19918;-62
2022/11/25 12:18:58;;;;;;;;;;;11.10;99.90;;;;;;4960901;28;20001;-64
2022/11/25 12:21:23;;;;;;;;;;;11.10;99.90;;;;;;4958402;28;19954;-62
2022/11/25 12:24:08;;;;;;;;;;;11.10;99.90;;;;;;4965639;28;19952;-62
2022/11/25 12:26:33;;;;;;;;;;;11.20;99.90;;;;;;4957911;28;19918;-62
2022/11/25 12:29:01;;;;;;;;;;;11.20;99.90;;;;;;4960620;28;19937;-62
2022/11/25 12:31:30;;;;;;;;;;;11.10;99.90;;;;;;4964531;28;19920;-62
2022/11/25 12:34:08;;;;;;;;;;;11.10;99.90;;;;;;4964913;28;19917;-62
2022/11/25 12:36:35;;;;;;;;;;;11.20;99.90;;;;;;4965017;28;19922;-62
2022/11/25 12:39:24;;;;;;;;;;;11.20;99.90;;;;;;4956028;28;19910;-63
2022/11/25 12:41:55;;;;;;;;;;;11.10;99.90;;;;;;4958285;28;19977;-63
2022/11/25 12:44:43;;;;;;;;;;;11.20;99.90;;;;;;4955210;28;19977;-63
2022/11/25 12:47:09;;;;;;;;;;;11.20;99.90;;;;;;4960097;28;20397;-63
2022/11/25 12:49:42;;;;;;;;;;;11.20;99.90;;;;;;4959900;28;19925;-63
2022/11/25 12:52:29;;;;;;;;;;;11.20;99.90;;;;;;4962098;28;20081;-63
2022/11/25 12:55:15;;;;;;;;;;;11.20;99.90;;;;;;4964395;28;21412;-63
2022/11/25 12:57:56;;;;;;;;;;;11.20;99.90;;;;;;4956163;28;19969;-63
2022/11/25 13:00:45;;;;;;;;;;;11.20;99.90;;;;;;4960429;28;19922;-62
2022/11/25 13:03:26;;;;;;;;;;;11.20;99.90;;;;;;4963734;28;19914;-62
2022/11/25 13:06:03;;;;;;;;;;;11.20;99.90;;;;;;4962526;28;20626;-62
2022/11/25 13:08:40;;;;;;;;;;;11.30;99.90;;;;;;4954014;28;20058;-62
2022/11/25 13:11:12;;;;;;;;;;;11.40;99.90;;;;;;4961442;28;20370;-62
2022/11/25 13:13:42;;;;;;;;;;;11.40;99.90;;;;;;4967215;28;20238;-62
2022/11/25 13:16:08;;;;;;;;;;;11.30;99.90;;;;;;4955597;28;20120;-62
2022/11/25 13:18:37;;;;;;;;;;;11.40;99.90;;;;;;4962911;28;19961;-62
2022/11/25 13:21:10;;;;;;;;;;;11.40;99.90;;;;;;4963190;28;20005;-62
2022/11/25 13:23:50;;;;;;;;;;;11.30;99.90;;;;;;4966897;28;20342;-63
2022/11/25 13:26:27;;;;;;;;;;;11.30;99.90;;;;;;4966274;28;20378;-62
2022/11/25 13:28:53;;;;;;;;;;;11.30;99.90;;;;;;4960367;28;20448;-62
2022/11/25 13:31:20;;;;;;;;;;;11.40;99.90;;;;;;4961135;28;20009;-62
2022/11/25 13:33:45;;;;;;;;;;;11.40;99.90;;;;;;4964228;28;19914;-62
2022/11/25 13:36:25;;;;;;;;;;;11.40;99.90;;;;;;4963839;28;19917;-63
2022/11/25 13:38:50;;;;;;;;;;;11.50;99.90;;;;;;4962535;28;19938;-63
2022/11/25 13:41:18;;;;;;;;;;;11.50;99.90;;;;;;4964789;28;19918;-63
2022/11/25 13:44:02;;;;;;;;;;;11.50;99.90;;;;;;4968525;28;19914;-63
2022/11/25 13:46:33;;;;;;;;;;;11.50;99.90;;;;;;4961796;28;19914;-62
2022/11/25 13:48:59;;;;;;;;;;;11.50;99.90;;;;;;4959065;28;19919;-62
2022/11/25 13:51:25;;;;;;;;;;;11.50;99.90;;;;;;4965981;28;20110;-62
2022/11/25 13:53:59;;;;;;;;;;;11.50;99.90;;;;;;4961667;28;19965;-62
2022/11/25 13:56:27;;;;;;;;;;;11.50;99.90;;;;;;4966217;28;20121;-62
2022/11/25 13:59:10;;;;;;;;;;;11.50;99.90;;;;;;4954519;28;19985;-62
2022/11/25 14:01:45;;;;;;;;;;;11.50;99.90;;;;;;4966097;28;19928;-62
2022/11/25 14:04:12;;;;;;;;;;;11.50;99.90;;;;;;4955407;28;19954;-62
2022/11/25 14:06:38;;;;;;;;;;;11.50;99.90;;;;;;4963271;28;19910;-62
2022/11/25 14:09:11;;;;;;;;;;;11.40;99.90;;;;;;4959149;28;19941;-62
2022/11/25 14:11:53;;;;;;;;;;;11.50;99.90;;;;;;4965472;28;19918;-62
2022/11/25 14:14:42;;;;;;;;;;;11.50;99.90;;;;;;4952005;28;19921;-62
2022/11/25 14:17:24;;;;;;;;;;;11.60;99.90;;;;;;4955767;28;19954;-62
2022/11/25 14:19:50;;;;;;;;;;;11.50;99.90;;;;;;4964147;28;20258;-62
2022/11/25 14:22:34;;;;;;;;;;;11.60;99.90;;;;;;4969490;28;19921;-62
2022/11/25 14:25:18;;;;;;;;;;;11.60;99.90;;;;;;4963365;28;19910;-62
2022/11/25 14:27:45;;;;;;;;;;;11.60;99.90;;;;;;4959169;28;20415;-62